MSC Paola — 9HA2581 — position and weather

sailwx.info

Track history (hours):
 
Tides and Currents Weather Stations Pressure Air Temp Water Temp Dewpoint Dewpoint Depression Visibility Wind Speed Wind Dir Waves Ship Positions

MSC Paola

Last reported at 2015-Aug-17 21:13 UTC. Time now 2015-Sep-04 07:55 UTC.
Position S 34°40' E 018°57'.
Warning: this ship's position is 17 days out of date.

Length 243 m; draft 8.2 m.

Type: Ship (hazmat cat A). MMSI: 248931000.

Date/timePositionNaut miles runAvg speedWind from/ knotsBaromVisibWave heightAir tempDewpointWater temp
2015-Aug-17 21:13S 34°40' E 018°57'2018.6
2015-Aug-17 20:07S 34°50' E 019°18'1118.6
2015-Aug-17 19:33S 34°55' E 019°30'2118.5
2015-Aug-17 18:25S 34°58' E 019°55'2019.1
2015-Aug-17 17:21S 34°58' E 020°20'44919.5
2015-Aug-16 18:23S 32°28' E 028°49'16320.7
2015-Aug-16 10:30S 30°22' E 030°50'1818.7
2015-Aug-16 09:33S 30°06' E 031°00'1515.4
2015-Aug-16 08:33S 29°51' E 031°05'3 3.3
2015-Aug-16 07:33S 29°53' E 031°02'0 0.0
2015-Aug-16 06:33S 29°53' E 031°02'0 0.0
2015-Aug-16 05:33S 29°53' E 031°02'0 0.0
2015-Aug-16 04:33S 29°53' E 031°02'0 0.0
2015-Aug-16 03:33S 29°53' E 031°02'0 0.0
2015-Aug-16 02:33S 29°53' E 031°02'0 0.0
2015-Aug-16 01:33S 29°53' E 031°02'0 0.0
2015-Aug-16 00:33S 29°53' E 031°02'0 0.0
2015-Aug-15 23:33S 29°53' E 031°02'0 0.0
2015-Aug-15 22:33S 29°53' E 031°02'0 0.0
2015-Aug-15 21:33S 29°53' E 031°02'0 0.0
2015-Aug-15 20:33S 29°53' E 031°02'0 0.0
2015-Aug-15 19:33S 29°53' E 031°02'0 0.0
2015-Aug-15 18:33S 29°53' E 031°02'0 0.0
2015-Aug-15 17:33S 29°53' E 031°02'0 0.0
2015-Aug-15 16:33S 29°53' E 031°02'0 0.0
2015-Aug-15 15:33S 29°53' E 031°02'0 0.0
2015-Aug-15 14:33S 29°53' E 031°02'0 0.0
2015-Aug-15 13:33S 29°53' E 031°02'0 0.0
2015-Aug-15 12:33S 29°53' E 031°02'0 0.0
2015-Aug-15 11:33S 29°53' E 031°02'0 0.0
2015-Aug-15 10:33S 29°53' E 031°02'0 0.0
2015-Aug-15 09:33S 29°53' E 031°02'0 0.0
2015-Aug-15 08:33S 29°53' E 031°02'0 0.0
2015-Aug-15 07:33S 29°53' E 031°02'0 0.0
2015-Aug-15 06:33S 29°53' E 031°02'0 0.4
2015-Aug-15 05:33S 29°53' E 031°02'5 5.2
2015-Aug-15 04:33S 29°49' E 031°06'5 4.8
2015-Aug-15 03:33S 29°53' E 031°09'1 1.5
2015-Aug-15 02:33S 29°52' E 031°10'6 5.5
2015-Aug-15 01:33S 29°46' E 031°10'1 0.6
2015-Aug-15 00:33S 29°45' E 031°10'0 0.0
2015-Aug-14 23:33S 29°45' E 031°10'0 0.0
2015-Aug-14 22:32S 29°45' E 031°10'0 0.0
2015-Aug-14 21:31S 29°45' E 031°10'0 0.0
2015-Aug-14 20:33S 29°45' E 031°10'0 0.0
2015-Aug-14 19:28S 29°45' E 031°10'0 0.0
2015-Aug-14 18:25S 29°45' E 031°10'0 0.0
2015-Aug-14 17:32S 29°45' E 031°10'0 0.1
2015-Aug-14 16:33S 29°45' E 031°10'0 0.0
2015-Aug-14 15:32S 29°45' E 031°10'0 0.0
2015-Aug-14 14:32S 29°45' E 031°10'0 0.0
2015-Aug-14 13:27S 29°45' E 031°10'0 0.1
2015-Aug-14 12:31S 29°45' E 031°10'0 0.0
2015-Aug-14 11:33S 29°45' E 031°10'0 0.0
2015-Aug-14 10:30S 29°45' E 031°10'0 0.0
2015-Aug-14 09:33S 29°45' E 031°10'0 0.0
2015-Aug-14 08:33S 29°45' E 031°10'0 0.0
2015-Aug-14 07:24S 29°45' E 031°10'0 0.0
2015-Aug-14 06:31S 29°45' E 031°10'0 0.0
2015-Aug-14 05:31S 29°45' E 031°10'0 0.0
2015-Aug-14 04:31S 29°45' E 031°10'0 0.0
2015-Aug-14 03:31S 29°45' E 031°10'0 0.0
2015-Aug-14 02:31S 29°45' E 031°10'0 0.0
2015-Aug-14 01:32S 29°45' E 031°10'0 0.0
2015-Aug-14 00:32S 29°45' E 031°10'0 0.0
2015-Aug-13 23:31S 29°45' E 031°10'0 0.0
2015-Aug-13 22:32S 29°45' E 031°10'0 0.0
2015-Aug-13 21:32S 29°45' E 031°10'0 0.0
2015-Aug-13 20:32S 29°45' E 031°10'0 0.0
2015-Aug-13 19:32S 29°45' E 031°10'0 0.0
2015-Aug-13 18:32S 29°45' E 031°10'0 0.0
2015-Aug-13 17:32S 29°45' E 031°10'0 0.0
2015-Aug-13 16:32S 29°45' E 031°10'0 0.4
2015-Aug-13 15:32S 29°46' E 031°10'0 0.0
2015-Aug-13 14:32S 29°45' E 031°10'0 0.0
2015-Aug-13 13:33S 29°45' E 031°10'0 0.1
2015-Aug-13 12:31S 29°46' E 031°10'0 0.0
2015-Aug-13 11:33S 29°46' E 031°10'0 0.0
2015-Aug-13 10:33S 29°45' E 031°10'0 0.0
2015-Aug-13 09:27S 29°45' E 031°10'0 0.0
2015-Aug-13 08:32S 29°45' E 031°10'0 0.0
2015-Aug-13 07:25S 29°45' E 031°10'0 0.0
2015-Aug-13 06:33S 29°46' E 031°10'0 0.0
2015-Aug-13 05:30S 29°45' E 031°10'0 0.0
2015-Aug-13 04:31S 29°45' E 031°10'0 0.0
2015-Aug-13 03:31S 29°45' E 031°10'0 0.0
2015-Aug-13 02:33S 29°45' E 031°10'0 0.0
2015-Aug-13 01:29S 29°45' E 031°10'0 0.0
2015-Aug-13 00:33S 29°45' E 031°10'0 0.0
2015-Aug-12 23:33S 29°45' E 031°10'0 0.0
2015-Aug-12 22:33S 29°45' E 031°10'0 0.0
2015-Aug-12 21:33S 29°46' E 031°10'0 0.0
2015-Aug-12 20:30S 29°46' E 031°10'0 0.0
2015-Aug-12 19:27S 29°46' E 031°10'0 0.0
2015-Aug-12 18:31S 29°46' E 031°10'0 0.0
2015-Aug-12 17:31S 29°46' E 031°10'0 0.0
2015-Aug-12 16:31S 29°45' E 031°10'0 0.0
2015-Aug-12 15:31S 29°45' E 031°10'0 0.0
2015-Aug-12 14:32S 29°45' E 031°10'0 0.0
2015-Aug-12 13:33S 29°45' E 031°10'0 0.0
2015-Aug-12 12:30S 29°45' E 031°10'0 0.0
2015-Aug-12 11:29S 29°45' E 031°10'0 0.0
2015-Aug-12 10:31S 29°45' E 031°10'0 0.0
2015-Aug-12 09:29S 29°45' E 031°10'0 0.0
2015-Aug-12 08:30S 29°45' E 031°10'0 0.0
2015-Aug-12 07:32S 29°45' E 031°10'0 0.0
2015-Aug-12 06:32S 29°45' E 031°10'0 0.1
2015-Aug-12 05:32S 29°45' E 031°10'0 0.0
2015-Aug-12 04:32S 29°45' E 031°10'0 0.0
2015-Aug-12 03:34S 29°45' E 031°10'0 0.0
2015-Aug-12 02:33S 29°45' E 031°10'0 0.0
2015-Aug-12 01:29S 29°45' E 031°10'0 0.0
2015-Aug-12 00:32S 29°45' E 031°10'0 0.0
2015-Aug-11 23:33S 29°45' E 031°10'0 0.1
2015-Aug-11 22:33S 29°45' E 031°10'0 0.1
2015-Aug-11 21:32S 29°45' E 031°10'0 0.1
2015-Aug-11 20:33S 29°45' E 031°10'0 0.1
2015-Aug-11 19:31S 29°45' E 031°10'0 0.0
2015-Aug-11 18:32S 29°45' E 031°10'0 0.0
2015-Aug-11 17:31S 29°45' E 031°10'0 0.0
2015-Aug-11 16:31S 29°45' E 031°10'0 0.0
2015-Aug-11 15:31S 29°45' E 031°10'0 0.0
2015-Aug-11 14:33S 29°45' E 031°10'0 0.0
2015-Aug-11 13:30S 29°45' E 031°10'0 0.0
2015-Aug-11 12:33S 29°45' E 031°10'0 0.0
2015-Aug-11 11:28S 29°45' E 031°10'0 0.0
2015-Aug-11 10:31S 29°45' E 031°10'0 0.0
2015-Aug-11 09:31S 29°45' E 031°10'0 0.0
2015-Aug-11 08:31S 29°45' E 031°10'0 0.0
2015-Aug-11 07:31S 29°45' E 031°10'0 0.0
2015-Aug-11 06:33S 29°45' E 031°10'0 0.0
2015-Aug-11 05:32S 29°45' E 031°10'0 0.0
2015-Aug-11 04:31S 29°45' E 031°10'0 0.0
2015-Aug-11 03:32S 29°45' E 031°10'0 0.0
2015-Aug-11 02:32S 29°45' E 031°10'0 0.0
2015-Aug-11 01:30S 29°45' E 031°10'0 0.0
2015-Aug-11 00:31S 29°45' E 031°10'0 0.0
2015-Aug-10 23:30S 29°45' E 031°10'0 0.0
2015-Aug-10 22:32S 29°45' E 031°10'0 0.1
2015-Aug-10 21:34S 29°45' E 031°10'0 0.0
2015-Aug-10 20:31S 29°45' E 031°10'0 0.0
2015-Aug-10 19:31S 29°45' E 031°10'0 0.0
2015-Aug-10 18:32S 29°45' E 031°10'0 0.0
2015-Aug-10 17:26S 29°45' E 031°10'0 0.0
2015-Aug-10 16:32S 29°45' E 031°10'0 0.1
2015-Aug-10 15:33S 29°45' E 031°10'0 0.0
2015-Aug-10 14:31S 29°45' E 031°10'0 0.0
2015-Aug-10 13:29S 29°45' E 031°10'0 0.0
2015-Aug-10 12:30S 29°45' E 031°10'0 0.1
2015-Aug-10 11:30S 29°45' E 031°10'0 0.0
2015-Aug-10 10:31S 29°45' E 031°10'0 0.0
2015-Aug-10 09:32S 29°45' E 031°10'0 0.1
2015-Aug-10 08:25S 29°45' E 031°10'0 0.0
2015-Aug-10 07:29S 29°45' E 031°10'0 0.0
2015-Aug-10 06:25S 29°45' E 031°10'0 0.0
2015-Aug-10 05:28S 29°45' E 031°10'0 0.0
2015-Aug-10 04:31S 29°45' E 031°10'0 0.0
2015-Aug-10 03:31S 29°45' E 031°10'0 0.0
2015-Aug-10 02:32S 29°45' E 031°10'0 0.0
2015-Aug-10 01:31S 29°45' E 031°10'0 0.0
2015-Aug-10 00:33S 29°45' E 031°10'0 0.0
2015-Aug-09 23:30S 29°45' E 031°10'0 0.0
2015-Aug-09 22:30S 29°45' E 031°10'0 0.0
2015-Aug-09 21:30S 29°45' E 031°10'0 0.0
2015-Aug-09 20:33S 29°45' E 031°10'0 0.0
2015-Aug-09 19:33S 29°45' E 031°10'0 0.1
2015-Aug-09 18:33S 29°45' E 031°10'0 0.1
2015-Aug-09 17:28S 29°45' E 031°10'0 0.1
2015-Aug-09 16:33S 29°45' E 031°10'0 0.0
2015-Aug-09 15:30S 29°45' E 031°10'0 0.0
2015-Aug-09 14:29S 29°45' E 031°10'0 0.1
2015-Aug-09 13:32S 29°45' E 031°10'0 0.0
2015-Aug-09 12:32S 29°45' E 031°10'0 0.0
2015-Aug-09 11:32S 29°45' E 031°10'0 0.0
2015-Aug-09 10:27S 29°45' E 031°10'0 0.0
2015-Aug-09 09:32S 29°45' E 031°10'0 0.0
2015-Aug-09 08:31S 29°45' E 031°10'0 0.0
2015-Aug-08 10:27S 29°45' E 031°10'0 0.0
2015-Aug-08 09:27S 29°45' E 031°10'0 0.0
2015-Aug-08 08:31S 29°45' E 031°10'0 0.0
2015-Aug-08 07:33S 29°45' E 031°10'0 0.0
2015-Aug-08 06:33S 29°45' E 031°10'0 0.0
2015-Aug-08 05:32S 29°45' E 031°10'0 0.0
2015-Aug-08 04:33S 29°45' E 031°10'0 0.0
2015-Aug-08 03:29S 29°45' E 031°10'0 0.0
2015-Aug-08 02:32S 29°45' E 031°10'0 0.0
2015-Aug-08 01:30S 29°45' E 031°10'0 0.0
2015-Aug-08 00:33S 29°45' E 031°10'0 0.0
2015-Aug-07 23:30S 29°45' E 031°10'2 1.6
2015-Aug-07 22:33S 29°47' E 031°10'9 9.2
2015-Aug-07 21:33S 29°56' E 031°08'  
Track history (hours):
 
Tides and Currents Weather Stations Pressure Air Temp Water Temp Dewpoint Dewpoint Depression Visibility Wind Speed Wind Dir Waves Ship Positions

MSC Paola

Last reported at 2015-Aug-17 21:13 UTC. Time now 2015-Sep-04 07:55 UTC.
Position S 34°40' E 018°57'.
Warning: this ship's position is 17 days out of date.

Length 243 m; draft 8.2 m.

Type: Ship (hazmat cat A). MMSI: 248931000.

Date/timePositionNaut miles runAvg speedWind from/ knotsBaromVisibWave heightAir tempDewpointWater temp
2015-Aug-17 21:13S 34°40' E 018°57'2018.6
2015-Aug-17 20:07S 34°50' E 019°18'1118.6
2015-Aug-17 19:33S 34°55' E 019°30'2118.5
2015-Aug-17 18:25S 34°58' E 019°55'2019.1
2015-Aug-17 17:21S 34°58' E 020°20'44919.5
2015-Aug-16 18:23S 32°28' E 028°49'16320.7
2015-Aug-16 10:30S 30°22' E 030°50'1818.7
2015-Aug-16 09:33S 30°06' E 031°00'1515.4
2015-Aug-16 08:33S 29°51' E 031°05'3 3.3
2015-Aug-16 07:33S 29°53' E 031°02'0 0.0
2015-Aug-16 06:33S 29°53' E 031°02'0 0.0
2015-Aug-16 05:33S 29°53' E 031°02'0 0.0
2015-Aug-16 04:33S 29°53' E 031°02'0 0.0
2015-Aug-16 03:33S 29°53' E 031°02'0 0.0
2015-Aug-16 02:33S 29°53' E 031°02'0 0.0
2015-Aug-16 01:33S 29°53' E 031°02'0 0.0
2015-Aug-16 00:33S 29°53' E 031°02'0 0.0
2015-Aug-15 23:33S 29°53' E 031°02'0 0.0
2015-Aug-15 22:33S 29°53' E 031°02'0 0.0
2015-Aug-15 21:33S 29°53' E 031°02'0 0.0
2015-Aug-15 20:33S 29°53' E 031°02'0 0.0
2015-Aug-15 19:33S 29°53' E 031°02'0 0.0
2015-Aug-15 18:33S 29°53' E 031°02'0 0.0
2015-Aug-15 17:33S 29°53' E 031°02'0 0.0
2015-Aug-15 16:33S 29°53' E 031°02'0 0.0
2015-Aug-15 15:33S 29°53' E 031°02'0 0.0
2015-Aug-15 14:33S 29°53' E 031°02'0 0.0
2015-Aug-15 13:33S 29°53' E 031°02'0 0.0
2015-Aug-15 12:33S 29°53' E 031°02'0 0.0
2015-Aug-15 11:33S 29°53' E 031°02'0 0.0
2015-Aug-15 10:33S 29°53' E 031°02'0 0.0
2015-Aug-15 09:33S 29°53' E 031°02'0 0.0
2015-Aug-15 08:33S 29°53' E 031°02'0 0.0
2015-Aug-15 07:33S 29°53' E 031°02'0 0.0
2015-Aug-15 06:33S 29°53' E 031°02'0 0.4
2015-Aug-15 05:33S 29°53' E 031°02'5 5.2
2015-Aug-15 04:33S 29°49' E 031°06'5 4.8
2015-Aug-15 03:33S 29°53' E 031°09'1 1.5
2015-Aug-15 02:33S 29°52' E 031°10'6 5.5
2015-Aug-15 01:33S 29°46' E 031°10'1 0.6
2015-Aug-15 00:33S 29°45' E 031°10'0 0.0
2015-Aug-14 23:33S 29°45' E 031°10'0 0.0
2015-Aug-14 22:32S 29°45' E 031°10'0 0.0
2015-Aug-14 21:31S 29°45' E 031°10'0 0.0
2015-Aug-14 20:33S 29°45' E 031°10'0 0.0
2015-Aug-14 19:28S 29°45' E 031°10'0 0.0
2015-Aug-14 18:25S 29°45' E 031°10'0 0.0
2015-Aug-14 17:32S 29°45' E 031°10'0 0.1
2015-Aug-14 16:33S 29°45' E 031°10'0 0.0
2015-Aug-14 15:32S 29°45' E 031°10'0 0.0
2015-Aug-14 14:32S 29°45' E 031°10'0 0.0
2015-Aug-14 13:27S 29°45' E 031°10'0 0.1
2015-Aug-14 12:31S 29°45' E 031°10'0 0.0
2015-Aug-14 11:33S 29°45' E 031°10'0 0.0
2015-Aug-14 10:30S 29°45' E 031°10'0 0.0
2015-Aug-14 09:33S 29°45' E 031°10'0 0.0
2015-Aug-14 08:33S 29°45' E 031°10'0 0.0
2015-Aug-14 07:24S 29°45' E 031°10'0 0.0
2015-Aug-14 06:31S 29°45' E 031°10'0 0.0
2015-Aug-14 05:31S 29°45' E 031°10'0 0.0
2015-Aug-14 04:31S 29°45' E 031°10'0 0.0
2015-Aug-14 03:31S 29°45' E 031°10'0 0.0
2015-Aug-14 02:31S 29°45' E 031°10'0 0.0
2015-Aug-14 01:32S 29°45' E 031°10'0 0.0
2015-Aug-14 00:32S 29°45' E 031°10'0 0.0
2015-Aug-13 23:31S 29°45' E 031°10'0 0.0
2015-Aug-13 22:32S 29°45' E 031°10'0 0.0
2015-Aug-13 21:32S 29°45' E 031°10'0 0.0
2015-Aug-13 20:32S 29°45' E 031°10'0 0.0
2015-Aug-13 19:32S 29°45' E 031°10'0 0.0
2015-Aug-13 18:32S 29°45' E 031°10'0 0.0
2015-Aug-13 17:32S 29°45' E 031°10'0 0.0
2015-Aug-13 16:32S 29°45' E 031°10'0 0.4
2015-Aug-13 15:32S 29°46' E 031°10'0 0.0
2015-Aug-13 14:32S 29°45' E 031°10'0 0.0
2015-Aug-13 13:33S 29°45' E 031°10'0 0.1
2015-Aug-13 12:31S 29°46' E 031°10'0 0.0
2015-Aug-13 11:33S 29°46' E 031°10'0 0.0
2015-Aug-13 10:33S 29°45' E 031°10'0 0.0
2015-Aug-13 09:27S 29°45' E 031°10'0 0.0
2015-Aug-13 08:32S 29°45' E 031°10'0 0.0
2015-Aug-13 07:25S 29°45' E 031°10'0 0.0
2015-Aug-13 06:33S 29°46' E 031°10'0 0.0
2015-Aug-13 05:30S 29°45' E 031°10'0 0.0
2015-Aug-13 04:31S 29°45' E 031°10'0 0.0
2015-Aug-13 03:31S 29°45' E 031°10'0 0.0
2015-Aug-13 02:33S 29°45' E 031°10'0 0.0
2015-Aug-13 01:29S 29°45' E 031°10'0 0.0
2015-Aug-13 00:33S 29°45' E 031°10'0 0.0
2015-Aug-12 23:33S 29°45' E 031°10'0 0.0
2015-Aug-12 22:33S 29°45' E 031°10'0 0.0
2015-Aug-12 21:33S 29°46' E 031°10'0 0.0
2015-Aug-12 20:30S 29°46' E 031°10'0 0.0
2015-Aug-12 19:27S 29°46' E 031°10'0 0.0
2015-Aug-12 18:31S 29°46' E 031°10'0 0.0
2015-Aug-12 17:31S 29°46' E 031°10'0 0.0
2015-Aug-12 16:31S 29°45' E 031°10'0 0.0
2015-Aug-12 15:31S 29°45' E 031°10'0 0.0
2015-Aug-12 14:32S 29°45' E 031°10'0 0.0
2015-Aug-12 13:33S 29°45' E 031°10'0 0.0
2015-Aug-12 12:30S 29°45' E 031°10'0 0.0
2015-Aug-12 11:29S 29°45' E 031°10'0 0.0
2015-Aug-12 10:31S 29°45' E 031°10'0 0.0
2015-Aug-12 09:29S 29°45' E 031°10'0 0.0
2015-Aug-12 08:30S 29°45' E 031°10'0 0.0
2015-Aug-12 07:32S 29°45' E 031°10'0 0.0
2015-Aug-12 06:32S 29°45' E 031°10'0 0.1
2015-Aug-12 05:32S 29°45' E 031°10'0 0.0
2015-Aug-12 04:32S 29°45' E 031°10'0 0.0
2015-Aug-12 03:34S 29°45' E 031°10'0 0.0
2015-Aug-12 02:33S 29°45' E 031°10'0 0.0
2015-Aug-12 01:29S 29°45' E 031°10'0 0.0
2015-Aug-12 00:32S 29°45' E 031°10'0 0.0
2015-Aug-11 23:33S 29°45' E 031°10'0 0.1
2015-Aug-11 22:33S 29°45' E 031°10'0 0.1
2015-Aug-11 21:32S 29°45' E 031°10'0 0.1
2015-Aug-11 20:33S 29°45' E 031°10'0 0.1
2015-Aug-11 19:31S 29°45' E 031°10'0 0.0
2015-Aug-11 18:32S 29°45' E 031°10'0 0.0
2015-Aug-11 17:31S 29°45' E 031°10'0 0.0
2015-Aug-11 16:31S 29°45' E 031°10'0 0.0
2015-Aug-11 15:31S 29°45' E 031°10'0 0.0
2015-Aug-11 14:33S 29°45' E 031°10'0 0.0
2015-Aug-11 13:30S 29°45' E 031°10'0 0.0
2015-Aug-11 12:33S 29°45' E 031°10'0 0.0
2015-Aug-11 11:28S 29°45' E 031°10'0 0.0
2015-Aug-11 10:31S 29°45' E 031°10'0 0.0
2015-Aug-11 09:31S 29°45' E 031°10'0 0.0
2015-Aug-11 08:31S 29°45' E 031°10'0 0.0
2015-Aug-11 07:31S 29°45' E 031°10'0 0.0
2015-Aug-11 06:33S 29°45' E 031°10'0 0.0
2015-Aug-11 05:32S 29°45' E 031°10'0 0.0
2015-Aug-11 04:31S 29°45' E 031°10'0 0.0
2015-Aug-11 03:32S 29°45' E 031°10'0 0.0
2015-Aug-11 02:32S 29°45' E 031°10'0 0.0
2015-Aug-11 01:30S 29°45' E 031°10'0 0.0
2015-Aug-11 00:31S 29°45' E 031°10'0 0.0
2015-Aug-10 23:30S 29°45' E 031°10'0 0.0
2015-Aug-10 22:32S 29°45' E 031°10'0 0.1
2015-Aug-10 21:34S 29°45' E 031°10'0 0.0
2015-Aug-10 20:31S 29°45' E 031°10'0 0.0
2015-Aug-10 19:31S 29°45' E 031°10'0 0.0
2015-Aug-10 18:32S 29°45' E 031°10'0 0.0
2015-Aug-10 17:26S 29°45' E 031°10'0 0.0
2015-Aug-10 16:32S 29°45' E 031°10'0 0.1
2015-Aug-10 15:33S 29°45' E 031°10'0 0.0
2015-Aug-10 14:31S 29°45' E 031°10'0 0.0
2015-Aug-10 13:29S 29°45' E 031°10'0 0.0
2015-Aug-10 12:30S 29°45' E 031°10'0 0.1
2015-Aug-10 11:30S 29°45' E 031°10'0 0.0
2015-Aug-10 10:31S 29°45' E 031°10'0 0.0
2015-Aug-10 09:32S 29°45' E 031°10'0 0.1
2015-Aug-10 08:25S 29°45' E 031°10'0 0.0
2015-Aug-10 07:29S 29°45' E 031°10'0 0.0
2015-Aug-10 06:25S 29°45' E 031°10'0 0.0
2015-Aug-10 05:28S 29°45' E 031°10'0 0.0
2015-Aug-10 04:31S 29°45' E 031°10'0 0.0
2015-Aug-10 03:31S 29°45' E 031°10'0 0.0
2015-Aug-10 02:32S 29°45' E 031°10'0 0.0
2015-Aug-10 01:31S 29°45' E 031°10'0 0.0
2015-Aug-10 00:33S 29°45' E 031°10'0 0.0
2015-Aug-09 23:30S 29°45' E 031°10'0 0.0
2015-Aug-09 22:30S 29°45' E 031°10'0 0.0
2015-Aug-09 21:30S 29°45' E 031°10'0 0.0
2015-Aug-09 20:33S 29°45' E 031°10'0 0.0
2015-Aug-09 19:33S 29°45' E 031°10'0 0.1
2015-Aug-09 18:33S 29°45' E 031°10'0 0.1
2015-Aug-09 17:28S 29°45' E 031°10'0 0.1
2015-Aug-09 16:33S 29°45' E 031°10'0 0.0
2015-Aug-09 15:30S 29°45' E 031°10'0 0.0
2015-Aug-09 14:29S 29°45' E 031°10'0 0.1
2015-Aug-09 13:32S 29°45' E 031°10'0 0.0
2015-Aug-09 12:32S 29°45' E 031°10'0 0.0
2015-Aug-09 11:32S 29°45' E 031°10'0 0.0
2015-Aug-09 10:27S 29°45' E 031°10'0 0.0
2015-Aug-09 09:32S 29°45' E 031°10'0 0.0
2015-Aug-09 08:31S 29°45' E 031°10'0 0.0
2015-Aug-08 10:27S 29°45' E 031°10'0 0.0
2015-Aug-08 09:27S 29°45' E 031°10'0 0.0
2015-Aug-08 08:31S 29°45' E 031°10'0 0.0
2015-Aug-08 07:33S 29°45' E 031°10'0 0.0
2015-Aug-08 06:33S 29°45' E 031°10'0 0.0
2015-Aug-08 05:32S 29°45' E 031°10'0 0.0
2015-Aug-08 04:33S 29°45' E 031°10'0 0.0
2015-Aug-08 03:29S 29°45' E 031°10'0 0.0
2015-Aug-08 02:32S 29°45' E 031°10'0 0.0
2015-Aug-08 01:30S 29°45' E 031°10'0 0.0
2015-Aug-08 00:33S 29°45' E 031°10'0 0.0
2015-Aug-07 23:30S 29°45' E 031°10'2 1.6
2015-Aug-07 22:33S 29°47' E 031°10'9 9.2
2015-Aug-07 21:33S 29°56' E 031°08'  

Dump ship's entire track history